Time;durP1;ratioP1;P1;durP2;ratioP2;P2;SDS_P1;SDS_P2;PMS_P1;PMS_P2;Temp;Humidity;BMP_temperature;BMP_pressure;BME280_temperature;BME280_humidity;BME280_pressure;Samples;Min_cycle;Max_cycle;Signal;HPM_P1;HPM_P2
2022/02/16 00:01:49;;;;;;;5.63;1.95;;;2.60;99.90;;;;;;6244708;22;20024;-87
2022/02/16 00:04:39;;;;;;;4.65;1.60;;;2.60;99.90;;;;;;6241158;23;20043;-86
2022/02/16 00:07:28;;;;;;;5.47;2.10;;;2.60;99.90;;;;;;6242771;23;20086;-87
2022/02/16 00:10:17;;;;;;;7.13;2.38;;;2.60;99.90;;;;;;6241848;23;20028;-86
2022/02/16 00:13:07;;;;;;;5.65;2.13;;;2.60;99.90;;;;;;6241611;23;20312;-86
2022/02/16 00:15:54;;;;;;;4.53;2.40;;;2.60;99.90;;;;;;6244676;23;20048;-86
2022/02/16 00:18:46;;;;;;;6.00;2.15;;;2.60;99.90;;;;;;6245066;23;20032;-84
2022/02/16 00:21:33;;;;;;;5.45;1.85;;;2.50;99.90;;;;;;6241160;23;20048;-85
2022/02/16 00:24:20;;;;;;;8.25;2.13;;;2.50;99.90;;;;;;6244111;22;20070;-86
2022/02/16 00:27:08;;;;;;;6.97;2.40;;;2.50;99.90;;;;;;6243732;22;20106;-86
2022/02/16 00:29:57;;;;;;;4.68;1.88;;;2.50;99.90;;;;;;6222928;23;20031;-84
2022/02/16 00:32:47;;;;;;;4.95;2.28;;;2.50;99.90;;;;;;6241112;23;20081;-84
2022/02/16 00:35:34;;;;;;;4.40;1.85;;;2.50;99.90;;;;;;6240092;23;20028;-86
2022/02/16 00:38:21;;;;;;;8.25;2.13;;;2.50;99.90;;;;;;6243481;23;20032;-88
2022/02/16 00:41:11;;;;;;;5.00;2.42;;;2.50;99.90;;;;;;6241698;23;20035;-86
2022/02/16 00:43:58;;;;;;;3.97;1.92;;;2.50;99.90;;;;;;6240337;23;20055;-88
2022/02/16 00:46:45;;;;;;;5.85;2.85;;;2.50;99.90;;;;;;6242320;23;20058;-88
2022/02/16 00:49:34;;;;;;;5.25;2.45;;;2.60;99.90;;;;;;6241684;23;20036;-87
2022/02/16 00:52:22;;;;;;;6.90;2.20;;;2.70;99.90;;;;;;6246771;22;20036;-87
2022/02/16 00:55:10;;;;;;;9.43;2.53;;;2.80;99.90;;;;;;6241962;23;20098;-87
2022/02/16 00:57:57;;;;;;;4.95;2.00;;;2.80;99.90;;;;;;6242263;23;20085;-88
2022/02/16 01:00:45;;;;;;;6.78;2.28;;;2.90;99.90;;;;;;6240521;23;20103;-87
2022/02/16 01:03:32;;;;;;;4.60;2.17;;;3.00;99.90;;;;;;6241322;23;20031;-84
2022/02/16 01:06:19;;;;;;;8.27;2.10;;;3.00;99.90;;;;;;6240126;23;20020;-87
2022/02/16 01:09:06;;;;;;;3.80;2.05;;;3.10;99.90;;;;;;6242820;23;20020;-87
2022/02/16 01:11:54;;;;;;;8.40;2.40;;;3.20;99.90;;;;;;6242962;23;20024;-88
2022/02/16 01:14:41;;;;;;;6.78;2.15;;;3.20;99.90;;;;;;6241153;23;20447;-81
2022/02/16 01:17:42;;;;;;;5.18;1.77;;;3.20;99.90;;;;;;6239187;23;20028;-86
2022/02/16 01:20:30;;;;;;;5.07;1.98;;;3.20;99.90;;;;;;6242673;23;20031;-87
2022/02/16 01:23:17;;;;;;;8.45;2.45;;;3.30;99.90;;;;;;6242050;23;20456;-87
2022/02/16 01:26:04;;;;;;;4.35;1.95;;;3.30;99.90;;;;;;6242899;23;20020;-87
2022/02/16 01:28:56;;;;;;;5.05;1.98;;;3.30;99.90;;;;;;6240477;23;20061;-86
2022/02/16 01:31:43;;;;;;;4.50;1.65;;;3.30;99.90;;;;;;6241451;23;20032;-88
2022/02/16 01:34:31;;;;;;;5.30;2.00;;;3.30;99.90;;;;;;6241732;23;20027;-87
2022/02/16 01:37:19;;;;;;;6.80;1.90;;;3.30;99.90;;;;;;6241900;23;20031;-87
2022/02/16 01:40:06;;;;;;;4.28;1.67;;;3.30;99.90;;;;;;6240391;23;20024;-87
2022/02/16 01:42:53;;;;;;;4.05;1.75;;;3.20;99.90;;;;;;6241516;23;20044;-87
2022/02/16 01:45:41;;;;;;;9.02;1.85;;;3.30;99.90;;;;;;6241483;23;20024;-86
2022/02/16 01:48:28;;;;;;;5.63;1.75;;;3.30;99.90;;;;;;6243515;23;20078;-87
2022/02/16 01:51:16;;;;;;;3.63;1.40;;;3.30;99.90;;;;;;6242642;23;20024;-87
2022/02/16 01:54:03;;;;;;;3.50;1.65;;;3.20;99.90;;;;;;6243397;23;20032;-87
2022/02/16 01:56:52;;;;;;;7.78;1.90;;;3.20;99.90;;;;;;6243293;23;20047;-88
2022/02/16 01:59:40;;;;;;;8.27;2.40;;;3.20;99.90;;;;;;6242822;23;20020;-86
2022/02/16 02:02:34;;;;;;;6.82;1.90;;;3.20;99.90;;;;;;6244629;23;20358;-87
2022/02/16 02:05:21;;;;;;;5.07;1.95;;;3.20;99.90;;;;;;6242075;23;20028;-88
2022/02/16 02:08:10;;;;;;;6.18;1.55;;;3.20;99.90;;;;;;6242886;23;20098;-86
2022/02/16 02:11:02;;;;;;;5.25;1.67;;;3.20;99.90;;;;;;6244519;23;20050;-85
2022/02/16 02:13:58;;;;;;;3.95;1.65;;;3.20;99.90;;;;;;6243841;23;20054;-87
2022/02/16 02:16:45;;;;;;;3.90;1.60;;;3.20;99.90;;;;;;6245271;22;20330;-86
2022/02/16 02:19:34;;;;;;;4.32;1.63;;;3.30;99.90;;;;;;6241875;23;20059;-88
2022/02/16 02:22:22;;;;;;;4.47;1.50;;;3.30;99.90;;;;;;6245503;22;20400;-87
2022/02/16 02:25:09;;;;;;;5.38;1.48;;;3.30;99.90;;;;;;6244110;23;20024;-87
2022/02/16 02:27:58;;;;;;;4.47;1.33;;;3.30;99.90;;;;;;6241820;23;20030;-87
2022/02/16 02:30:48;;;;;;;6.85;1.83;;;3.30;99.90;;;;;;6246212;23;20099;-87
2022/02/16 02:33:38;;;;;;;1.73;1.30;;;3.40;99.90;;;;;;6244416;23;20399;-88
2022/02/16 02:36:27;;;;;;;5.53;2.08;;;3.30;99.90;;;;;;6247177;23;20028;-87
2022/02/16 02:39:15;;;;;;;6.00;1.50;;;3.40;99.90;;;;;;6244648;23;20090;-88
2022/02/16 02:42:03;;;;;;;3.28;1.52;;;3.40;99.90;;;;;;6244573;23;20056;-86
2022/02/16 02:44:52;;;;;;;3.60;1.50;;;3.40;99.90;;;;;;6245036;22;20170;-87
2022/02/16 02:47:41;;;;;;;3.08;1.52;;;3.40;99.90;;;;;;6242357;23;20390;-87
2022/02/16 02:50:28;;;;;;;2.58;1.50;;;3.40;99.90;;;;;;6245195;22;20040;-86
2022/02/16 02:53:18;;;;;;;2.95;1.60;;;3.40;99.90;;;;;;6243956;23;20027;-88
2022/02/16 02:56:09;;;;;;;3.88;1.80;;;3.40;99.90;;;;;;6245193;22;20081;-86
2022/02/16 02:58:56;;;;;;;3.30;1.50;;;3.50;99.90;;;;;;6241447;23;20072;-87
2022/02/16 03:01:43;;;;;;;2.50;1.52;;;3.50;99.90;;;;;;6241408;23;20036;-87
2022/02/16 03:04:35;;;;;;;6.93;1.70;;;3.50;99.90;;;;;;6242855;23;20283;-87
2022/02/16 03:07:24;;;;;;;5.85;1.35;;;3.50;99.90;;;;;;6241592;23;20028;-86
2022/02/16 03:10:11;;;;;;;8.75;1.55;;;3.50;99.90;;;;;;6246178;23;20099;-85
2022/02/16 03:12:59;;;;;;;3.13;1.35;;;3.50;99.90;;;;;;6243502;23;20024;-87
2022/02/16 03:15:51;;;;;;;4.90;2.13;;;3.50;99.90;;;;;;6245819;22;20473;-88
2022/02/16 03:18:39;;;;;;;4.45;1.60;;;3.50;99.90;;;;;;6242918;23;20027;-86
2022/02/16 03:21:31;;;;;;;2.75;1.50;;;3.50;99.90;;;;;;6243003;23;20378;-86
2022/02/16 03:24:18;;;;;;;4.13;1.45;;;3.50;99.90;;;;;;6243204;23;20404;-87
2022/02/16 03:27:05;;;;;;;1.65;1.30;;;3.60;99.90;;;;;;6245615;22;20327;-86
2022/02/16 03:29:54;;;;;;;2.72;1.10;;;3.60;99.90;;;;;;6243757;23;20031;-87
2022/02/16 03:32:41;;;;;;;2.20;1.30;;;3.60;99.90;;;;;;6244319;23;20028;-88
2022/02/16 03:35:31;;;;;;;6.95;1.67;;;3.60;99.90;;;;;;6244708;23;20027;-88
2022/02/16 03:38:18;;;;;;;1.95;1.45;;;3.70;99.90;;;;;;6242837;23;20395;-88
2022/02/16 03:41:08;;;;;;;3.55;1.45;;;3.70;99.90;;;;;;6245496;22;20086;-86
2022/02/16 03:43:55;;;;;;;3.97;1.33;;;3.80;99.90;;;;;;6243973;23;20095;-86
2022/02/16 03:46:46;;;;;;;2.53;1.20;;;3.80;99.90;;;;;;6246632;23;20060;-87
2022/02/16 03:49:34;;;;;;;2.70;1.10;;;3.80;99.90;;;;;;6247301;23;20035;-87
2022/02/16 03:52:23;;;;;;;1.83;1.38;;;3.90;99.90;;;;;;6256023;22;20422;-88
2022/02/16 03:55:13;;;;;;;4.07;1.45;;;3.90;99.90;;;;;;6254640;23;20054;-88
2022/02/16 03:58:03;;;;;;;1.75;1.30;;;4.00;99.90;;;;;;6260394;22;20039;-85
2022/02/16 04:00:50;;;;;;;2.05;1.13;;;3.90;99.90;;;;;;6263069;22;20096;-84
2022/02/16 04:03:38;;;;;;;2.88;1.33;;;4.00;99.90;;;;;;6263277;23;20154;-86
2022/02/16 04:06:27;;;;;;;3.53;0.90;;;4.00;99.90;;;;;;6248373;23;20020;-84
2022/02/16 04:09:17;;;;;;;2.90;1.70;;;4.00;99.90;;;;;;6246970;23;20020;-87
2022/02/16 04:12:07;;;;;;;1.70;1.00;;;4.00;99.90;;;;;;6251469;22;20028;-85
2022/02/16 04:14:54;;;;;;;1.75;1.08;;;4.10;99.90;;;;;;6247950;23;20407;-85
2022/02/16 04:17:44;;;;;;;2.85;1.02;;;4.10;99.90;;;;;;6244032;23;20113;-87
2022/02/16 04:20:33;;;;;;;1.27;1.02;;;4.10;99.90;;;;;;6246134;23;20024;-86
2022/02/16 04:23:21;;;;;;;3.67;1.13;;;4.10;99.90;;;;;;6244209;22;20174;-87
2022/02/16 04:26:09;;;;;;;3.15;0.90;;;4.10;99.90;;;;;;6243182;23;20108;-87
2022/02/16 04:28:56;;;;;;;3.78;1.30;;;4.10;99.90;;;;;;6241779;23;20551;-88
2022/02/16 04:31:44;;;;;;;1.35;1.20;;;4.10;99.90;;;;;;6240868;23;20110;-85
2022/02/16 04:34:33;;;;;;;3.38;1.08;;;4.10;99.90;;;;;;6241184;23;20094;-84
2022/02/16 04:37:25;;;;;;;3.13;0.90;;;4.10;99.90;;;;;;6244088;23;20050;-87
2022/02/16 04:40:15;;;;;;;2.60;1.35;;;4.10;99.90;;;;;;6240251;23;20031;-85
2022/02/16 04:43:05;;;;;;;1.05;1.05;;;4.10;99.90;;;;;;6241511;23;20446;-86
2022/02/16 04:45:52;;;;;;;1.52;0.90;;;4.10;99.90;;;;;;6242470;23;20086;-90
2022/02/16 04:48:40;;;;;;;2.67;1.33;;;4.10;99.90;;;;;;6241326;23;20285;-88
2022/02/16 04:51:27;;;;;;;1.77;1.10;;;4.10;99.90;;;;;;6241210;23;20032;-86
2022/02/16 04:54:16;;;;;;;4.82;1.05;;;4.10;99.90;;;;;;6245313;23;20035;-86
2022/02/16 04:57:04;;;;;;;1.55;1.30;;;4.10;99.90;;;;;;6242164;23;20043;-87
2022/02/16 04:59:58;;;;;;;1.50;0.90;;;4.10;99.90;;;;;;6242078;23;20024;-85
2022/02/16 05:02:47;;;;;;;1.30;1.20;;;4.10;99.90;;;;;;6241801;23;20027;-87
2022/02/16 05:05:34;;;;;;;3.80;1.20;;;4.10;99.90;;;;;;6244251;22;20028;-86
2022/02/16 05:08:21;;;;;;;2.33;1.10;;;4.10;99.90;;;;;;6240292;23;20121;-86
2022/02/16 05:11:10;;;;;;;1.63;1.00;;;4.10;99.90;;;;;;6240407;23;20020;-86
2022/02/16 05:13:57;;;;;;;5.88;2.17;;;4.10;99.90;;;;;;6240996;23;20115;-84
2022/02/16 05:16:45;;;;;;;1.10;1.10;;;4.10;99.90;;;;;;6240506;23;20055;-86
2022/02/16 05:19:32;;;;;;;4.05;1.38;;;4.10;99.90;;;;;;6242785;22;20121;-84
2022/02/16 05:22:20;;;;;;;3.33;0.98;;;4.10;99.90;;;;;;6242115;23;20117;-86
2022/02/16 05:25:07;;;;;;;1.50;1.38;;;4.10;99.90;;;;;;6243635;23;20020;-87
2022/02/16 05:27:54;;;;;;;2.17;1.10;;;4.10;99.90;;;;;;6243553;23;20051;-86
2022/02/16 05:30:43;;;;;;;1.77;1.00;;;4.10;99.90;;;;;;6245022;23;20032;-87
2022/02/16 05:33:33;;;;;;;2.65;0.90;;;4.10;99.90;;;;;;6243653;23;20102;-87
2022/02/16 05:36:20;;;;;;;3.38;1.20;;;4.10;99.90;;;;;;6245247;23;20051;-88
2022/02/16 05:39:07;;;;;;;2.55;1.25;;;4.10;99.90;;;;;;6247762;22;20024;-87
2022/02/16 05:41:56;;;;;;;3.45;1.20;;;4.10;99.90;;;;;;6247255;23;20101;-84
2022/02/16 05:44:43;;;;;;;1.55;1.10;;;4.10;99.90;;;;;;6249796;23;20090;-86
2022/02/16 05:47:32;;;;;;;1.77;1.30;;;4.10;99.90;;;;;;6247142;23;20024;-86
2022/02/16 05:50:20;;;;;;;4.40;1.27;;;4.10;99.90;;;;;;6249317;22;20081;-85
2022/02/16 05:57:30;;;;;;;3.20;1.00;;;4.10;99.90;;;;;;6211040;23;20056;-85
2022/02/16 06:05:35;;;;;;;2.38;1.00;;;4.10;99.90;;;;;;6155341;23;20022;-83
2022/02/16 06:08:25;;;;;;;0.88;0.88;;;4.20;99.90;;;;;;6175645;23;20025;-82
2022/02/16 06:11:42;;;;;;;1.77;1.42;;;4.20;99.90;;;;;;6182014;23;20037;-82
2022/02/16 06:14:36;;;;;;;2.00;1.15;;;4.20;99.90;;;;;;6185486;23;20031;-84
2022/02/16 06:17:24;;;;;;;1.85;0.80;;;4.20;99.90;;;;;;6180088;23;20123;-85
2022/02/16 06:20:12;;;;;;;2.00;1.00;;;4.20;99.90;;;;;;6180752;23;20036;-84
2022/02/16 06:23:02;;;;;;;1.38;1.00;;;4.20;99.90;;;;;;6181516;23;20420;-82
2022/02/16 06:25:49;;;;;;;4.72;0.98;;;4.20;99.90;;;;;;6180411;23;20607;-83
2022/02/16 06:28:38;;;;;;;0.90;0.90;;;4.20;99.90;;;;;;6179625;23;20021;-83
2022/02/16 06:31:26;;;;;;;2.05;1.05;;;4.20;99.90;;;;;;6219522;23;20040;-84
2022/02/16 06:34:13;;;;;;;3.00;1.20;;;4.10;99.90;;;;;;6243853;23;20487;-89
2022/02/16 06:37:01;;;;;;;1.10;1.00;;;4.20;99.90;;;;;;6241904;23;20032;-86
2022/02/16 06:39:51;;;;;;;1.55;0.90;;;4.20;99.90;;;;;;6244446;23;20028;-86
2022/02/16 06:42:39;;;;;;;1.30;1.20;;;4.20;99.90;;;;;;6244770;23;20066;-87
2022/02/16 06:45:51;;;;;;;2.08;1.17;;;4.20;99.90;;;;;;6244260;23;20041;-86
2022/02/16 06:48:45;;;;;;;1.10;1.05;;;4.20;99.90;;;;;;6241641;23;20052;-89
2022/02/16 06:51:33;;;;;;;1.60;1.20;;;4.20;99.90;;;;;;6244943;22;20044;-88
2022/02/16 06:54:20;;;;;;;3.25;1.30;;;4.20;99.90;;;;;;6244843;22;20089;-87
2022/02/16 06:57:08;;;;;;;2.30;1.00;;;4.20;99.90;;;;;;6245656;22;20379;-91
2022/02/16 07:00:05;;;;;;;1.60;1.35;;;4.30;99.90;;;;;;6241244;23;20050;-92
2022/02/16 07:02:55;;;;;;;3.08;1.38;;;4.20;99.90;;;;;;6245375;23;20032;-88
2022/02/16 07:05:46;;;;;;;1.25;1.17;;;4.30;99.90;;;;;;6245450;22;20808;-86
2022/02/16 07:08:34;;;;;;;2.08;1.23;;;4.20;99.90;;;;;;6242092;23;20040;-87
2022/02/16 07:11:23;;;;;;;2.83;1.25;;;4.20;99.90;;;;;;6241955;23;20059;-88
2022/02/16 07:14:10;;;;;;;1.48;1.08;;;4.30;99.90;;;;;;6248130;22;20431;-88
2022/02/16 07:17:00;;;;;;;1.40;1.20;;;4.30;99.90;;;;;;6245146;22;20028;-88
2022/02/16 07:19:55;;;;;;;1.17;1.13;;;4.30;99.90;;;;;;6241746;23;20024;-93
2022/02/16 07:22:50;;;;;;;1.88;0.98;;;4.30;99.90;;;;;;6244539;23;20035;-89
2022/02/16 07:25:38;;;;;;;2.10;1.00;;;4.30;99.90;;;;;;6245052;22;20082;-91
2022/02/16 07:28:35;;;;;;;4.55;1.20;;;4.30;99.90;;;;;;6243755;22;20666;-87
2022/02/16 07:31:22;;;;;;;4.53;1.38;;;4.30;99.90;;;;;;6245576;23;20056;-90
2022/02/16 07:34:17;;;;;;;1.95;1.38;;;4.30;99.90;;;;;;6243417;23;20063;-90
2022/02/16 07:37:08;;;;;;;3.47;1.63;;;4.30;99.90;;;;;;6245456;23;20032;-91
2022/02/16 07:40:04;;;;;;;1.20;1.10;;;4.30;99.90;;;;;;6249640;23;20103;-90
2022/02/16 07:42:53;;;;;;;2.47;1.40;;;4.40;99.90;;;;;;6259139;23;20031;-90
2022/02/16 08:39:26;;;;;;;;;;;;;;;;;;;;;
2022/02/16 08:50:31;;;;;;;1.40;1.30;;;4.40;99.90;;;;;;6032624;23;20060;-82
2022/02/16 08:58:24;;;;;;;1.65;1.20;;;4.40;99.90;;;;;;6194711;23;20021;-89
2022/02/16 09:01:31;;;;;;;3.63;1.20;;;4.50;99.90;;;;;;6191740;23;20336;-83
2022/02/16 09:04:57;;;;;;;0.98;0.98;;;4.40;99.90;;;;;;6192053;23;20425;-87
2022/02/16 09:08:23;;;;;;;1.10;1.00;;;4.40;99.90;;;;;;6098990;23;20035;-84
2022/02/16 09:11:29;;;;;;;2.63;1.70;;;4.40;99.90;;;;;;6098004;23;20481;-87
2022/02/16 09:14:17;;;;;;;1.20;1.10;;;4.40;99.90;;;;;;6098298;23;20497;-87
2022/02/16 09:18:08;;;;;;;1.50;1.35;;;4.50;99.90;;;;;;6099691;23;20126;-90
2022/02/16 09:22:24;;;;;;;;;;;;;;;;;;;;;
2022/02/16 09:25:31;;;;;;;1.65;1.25;;;4.70;99.90;;;;;;6033237;23;20444;-87
2022/02/16 09:28:46;;;;;;;2.30;1.15;;;4.70;99.90;;;;;;6071198;23;20011;-87
2022/02/16 09:31:55;;;;;;;1.33;1.02;;;4.70;99.90;;;;;;6071062;23;20031;-88
2022/02/16 09:35:59;;;;;;;1.10;1.00;;;4.70;99.90;;;;;;6184821;23;20131;-87
2022/02/16 09:38:49;;;;;;;0.80;0.80;;;4.80;99.90;;;;;;6180540;23;20016;-86
2022/02/16 09:54:59;;;;;;;0.90;0.90;;;5.20;99.90;;;;;;5952261;24;20012;-89
2022/02/16 10:06:22;;;;;;;1.25;0.90;;;5.60;99.90;;;;;;5930130;24;20068;-85
2022/02/16 10:10:20;;;;;;;0.73;0.73;;;5.70;99.90;;;;;;6055125;23;20033;-87
2022/02/16 10:17:38;;;;;;;;;;;;;;;;;;;;;
2022/02/16 10:20:49;;;;;;;1.75;1.45;;;6.00;99.90;;;;;;5879797;24;20027;-87
2022/02/16 10:28:25;;;;;;;0.98;0.88;;;6.10;99.90;;;;;;5952804;24;20036;-87
2022/02/16 10:43:55;;;;;;;;;;;;;;;;;;;;;
2022/02/16 10:47:26;;;;;;;1.35;0.70;;;6.60;99.90;;;;;;5893975;24;20064;-85
2022/02/16 10:50:23;;;;;;;0.80;0.80;;;6.90;99.90;;;;;;5910780;24;20017;-86
2022/02/16 10:54:12;;;;;;;1.02;0.70;;;7.10;99.90;;;;;;5952118;24;20051;-87
2022/02/16 10:57:54;;;;;;;;;;;;;;;;;;;;;
2022/02/16 11:09:24;;;;;;;1.23;0.80;;;9.10;99.90;;;;;;5976099;23;20444;-86
2022/02/16 11:12:14;;;;;;;0.50;0.50;;;9.10;99.90;;;;;;5988819;23;20096;-87
2022/02/16 11:15:22;;;;;;;0.50;0.50;;;9.50;99.90;;;;;;6064426;23;20049;-86
2022/02/16 11:18:17;;;;;;;2.05;0.63;;;9.60;99.90;;;;;;6066203;23;20466;-87
2022/02/16 11:21:45;;;;;;;;;;;;;;;;;;;;;
2022/02/16 11:24:54;;;;;;;0.68;0.60;;;9.50;99.90;;;;;;6065497;23;20027;-88
2022/02/16 11:27:54;;;;;;;0.85;0.70;;;10.50;99.90;;;;;;6065268;23;20054;-88
2022/02/16 11:30:57;;;;;;;0.70;0.70;;;11.20;99.90;;;;;;6064921;23;20433;-88
2022/02/16 11:34:11;;;;;;;3.05;1.02;;;11.00;99.90;;;;;;6067554;23;20058;-88
2022/02/16 11:37:13;;;;;;;;;;;11.00;99.90;;;;;;6066699;23;20034;-88
2022/02/16 11:40:41;;;;;;;0.63;0.63;;;11.70;99.90;;;;;;6066096;23;19929;-87
2022/02/16 11:44:02;;;;;;;2.95;0.50;;;10.90;99.90;;;;;;5911795;24;20108;-87
2022/02/16 11:54:55;;;;;;;0.73;0.65;;;9.90;99.90;;;;;;5829666;24;20116;-88
2022/02/16 11:57:48;;;;;;;0.75;0.75;;;9.60;99.90;;;;;;5849057;24;20033;-89
2022/02/16 12:01:05;;;;;;;2.15;0.60;;;9.30;99.90;;;;;;5883376;24;20020;-85
2022/02/16 12:20:06;;;;;;;;;;;;;;;;;;;;;
2022/02/16 12:23:20;;;;;;;0.82;0.80;;;8.70;99.90;;;;;;5893811;24;20029;-87
2022/02/16 12:27:07;;;;;;;1.13;0.60;;;8.60;99.90;;;;;;5921093;24;20100;-86
2022/02/16 12:30:35;;;;;;;0.65;0.65;;;8.50;99.90;;;;;;6014252;23;20459;-84
2022/02/16 12:34:05;;;;;;;0.60;0.60;;;8.40;99.90;;;;;;6008029;23;20373;-87
2022/02/16 12:37:15;;;;;;;;;;;;;;;;;;;;;
2022/02/16 12:40:11;;;;;;;0.50;0.50;;;8.40;99.90;;;;;;6009556;23;20435;-87
2022/02/16 12:43:21;;;;;;;;;;;;;;;;;;;;;
2022/02/16 12:47:07;;;;;;;1.13;0.68;;;8.40;99.90;;;;;;5969054;23;20080;-90
2022/02/16 12:50:43;;;;;;;;;;;;;;;;;;;;;
2022/02/16 12:53:49;;;;;;;1.85;0.70;;;8.80;99.90;;;;;;5911123;24;20144;-86
2022/02/16 12:57:07;;;;;;;1.35;0.60;;;8.90;99.90;;;;;;5913096;24;20434;-87
2022/02/16 13:04:32;;;;;;;0.50;0.50;;;9.00;99.90;;;;;;5896179;24;20040;-86
2022/02/16 13:15:07;;;;;;;0.60;0.50;;;9.10;99.90;;;;;;5847103;24;20026;-87
2022/02/16 13:18:09;;;;;;;2.28;0.60;;;9.20;99.90;;;;;;5898128;24;20037;-85
2022/02/16 13:21:10;;;;;;;1.67;0.70;;;9.30;99.90;;;;;;5880328;24;20055;-88
2022/02/16 13:24:19;;;;;;;0.80;0.70;;;9.30;99.90;;;;;;5991149;23;20034;-85
2022/02/16 13:31:49;;;;;;;0.93;0.73;;;9.80;99.90;;;;;;5980475;24;20016;-87
2022/02/16 13:35:13;;;;;;;0.52;0.52;;;9.80;99.90;;;;;;5979329;24;20047;-87
2022/02/16 13:38:14;;;;;;;1.13;0.52;;;9.60;99.90;;;;;;5981353;23;20043;-86
2022/02/16 13:41:51;;;;;;;0.60;0.60;;;9.50;99.90;;;;;;5981462;24;20420;-86
2022/02/16 13:44:52;;;;;;;1.63;0.50;;;9.30;99.90;;;;;;5980689;24;20123;-90
2022/02/16 13:52:16;;;;;;;0.77;0.50;;;9.60;99.90;;;;;;5951296;24;20060;-89
2022/02/16 13:55:40;;;;;;;;;;;;;;;;;;;;;
2022/02/16 13:59:31;;;;;;;0.50;0.50;;;9.70;99.90;;;;;;6053098;23;20034;-90
2022/02/16 15:42:43;;;;;;;1.83;0.70;;;9.10;99.90;;;;;;6038591;23;20296;-91
2022/02/16 15:46:00;;;;;;;0.70;0.70;;;9.10;99.90;;;;;;6076115;23;20446;-90
2022/02/16 15:48:51;;;;;;;0.70;0.68;;;9.10;99.90;;;;;;6183952;23;20602;-89
2022/02/16 15:51:42;;;;;;;0.73;0.50;;;9.10;99.90;;;;;;6183353;23;20396;-89
2022/02/16 15:54:36;;;;;;;1.20;0.60;;;9.10;99.90;;;;;;6185261;23;20036;-89
2022/02/16 15:57:44;;;;;;;0.60;0.60;;;9.10;99.90;;;;;;6166468;23;20045;-88
2022/02/16 16:00:35;;;;;;;1.00;0.63;;;9.10;99.90;;;;;;6185112;23;20029;-88
2022/02/16 16:03:27;;;;;;;0.63;0.60;;;9.10;99.90;;;;;;6184690;23;20025;-88
2022/02/16 16:06:22;;;;;;;0.70;0.60;;;9.10;99.90;;;;;;6167659;23;20427;-89
2022/02/16 16:09:19;;;;;;;0.77;0.70;;;9.10;99.90;;;;;;6184077;23;20021;-88
2022/02/16 16:12:12;;;;;;;0.82;0.82;;;9.00;99.90;;;;;;6163068;23;20083;-89
2022/02/16 16:15:03;;;;;;;1.40;1.08;;;9.00;99.90;;;;;;6183923;23;20025;-89
2022/02/16 16:17:50;;;;;;;1.08;0.98;;;9.00;99.90;;;;;;6184579;23;20052;-87
2022/02/16 16:20:42;;;;;;;1.02;1.00;;;9.00;99.90;;;;;;6185086;23;20033;-89
2022/02/16 16:23:32;;;;;;;0.70;0.70;;;8.90;99.90;;;;;;6184391;23;20412;-89
2022/02/16 16:26:21;;;;;;;0.67;0.63;;;9.00;99.90;;;;;;6183909;23;20025;-87
2022/02/16 16:29:09;;;;;;;1.60;0.70;;;8.90;99.90;;;;;;6162045;23;20021;-89
2022/02/16 16:31:58;;;;;;;0.70;0.70;;;8.90;99.90;;;;;;6183803;23;20025;-88
2022/02/16 16:34:46;;;;;;;0.57;0.57;;;8.90;99.90;;;;;;6185086;23;20029;-89
2022/02/16 16:37:36;;;;;;;0.90;0.80;;;8.80;99.90;;;;;;6184786;23;20400;-88
2022/02/16 16:40:24;;;;;;;1.05;0.90;;;8.90;99.90;;;;;;6187452;23;20025;-88
2022/02/16 16:43:14;;;;;;;1.85;1.00;;;8.90;99.90;;;;;;6184290;23;20025;-87
2022/02/16 16:46:08;;;;;;;1.30;0.80;;;8.90;99.90;;;;;;6184305;23;20040;-88
2022/02/16 16:48:58;;;;;;;1.17;0.80;;;8.90;99.90;;;;;;6163008;23;20650;-87
2022/02/16 16:51:46;;;;;;;0.70;0.70;;;8.90;99.90;;;;;;6184955;23;20091;-88
2022/02/16 16:54:34;;;;;;;0.93;0.88;;;8.90;99.90;;;;;;6186375;23;20040;-91
2022/02/16 16:57:21;;;;;;;1.30;0.95;;;8.90;99.90;;;;;;6187073;23;20025;-86
2022/02/16 17:00:09;;;;;;;1.30;0.70;;;8.90;99.90;;;;;;6162888;23;20029;-90
2022/02/16 17:02:58;;;;;;;2.42;1.02;;;9.00;99.90;;;;;;6186323;23;20033;-85
2022/02/16 17:05:48;;;;;;;1.25;1.15;;;9.00;99.90;;;;;;6188645;23;20025;-86
2022/02/16 17:08:35;;;;;;;0.80;0.80;;;9.00;99.90;;;;;;6188562;23;20038;-87
2022/02/16 17:11:22;;;;;;;1.08;0.77;;;9.00;99.90;;;;;;6186505;23;20032;-88
2022/02/16 17:14:10;;;;;;;0.75;0.75;;;9.00;99.90;;;;;;6165052;23;20025;-88
2022/02/16 17:17:00;;;;;;;1.25;0.75;;;9.10;99.90;;;;;;6189856;23;20104;-88
2022/02/16 17:19:55;;;;;;;0.77;0.77;;;9.10;99.90;;;;;;6189084;23;20025;-87
2022/02/16 17:22:45;;;;;;;0.70;0.70;;;9.20;99.90;;;;;;6187373;23;20032;-92
2022/02/16 17:25:37;;;;;;;0.65;0.65;;;9.20;99.90;;;;;;6163100;23;20024;-88
2022/02/16 17:28:24;;;;;;;1.58;1.48;;;9.20;99.90;;;;;;6185350;23;20021;-87
2022/02/16 17:31:13;;;;;;;1.20;1.10;;;9.20;99.90;;;;;;6164400;23;20198;-84
2022/02/16 17:34:03;;;;;;;0.80;0.80;;;9.20;99.90;;;;;;6189565;23;20021;-86
2022/02/16 17:36:54;;;;;;;1.42;1.20;;;9.20;99.90;;;;;;6184841;23;20132;-85
2022/02/16 17:39:44;;;;;;;2.30;1.65;;;9.10;99.90;;;;;;6185916;23;20041;-87
2022/02/16 17:42:35;;;;;;;2.45;1.42;;;9.10;99.90;;;;;;6186116;23;20033;-88
2022/02/16 17:45:22;;;;;;;1.67;1.33;;;9.00;99.90;;;;;;6185597;23;20031;-90
2022/02/16 17:48:10;;;;;;;1.00;1.00;;;9.10;99.90;;;;;;6165486;23;20415;-89
2022/02/16 17:51:02;;;;;;;1.80;1.17;;;9.20;99.90;;;;;;6188635;23;20031;-84
2022/02/16 17:53:49;;;;;;;1.43;1.30;;;9.20;99.90;;;;;;6188148;23;20047;-90
2022/02/16 17:56:41;;;;;;;1.30;1.20;;;9.30;99.90;;;;;;6168178;23;20240;-88
2022/02/16 17:59:31;;;;;;;2.10;1.20;;;9.30;99.90;;;;;;6191198;23;20027;-91
2022/02/16 18:02:23;;;;;;;1.20;1.10;;;9.30;99.90;;;;;;6187112;23;20104;-87
2022/02/16 18:05:11;;;;;;;1.05;0.98;;;9.20;99.90;;;;;;6168171;23;20040;-90
2022/02/16 18:08:01;;;;;;;3.13;1.00;;;9.20;99.90;;;;;;6186558;23;20036;-88
2022/02/16 18:10:48;;;;;;;0.95;0.93;;;9.20;99.90;;;;;;6184988;23;20032;-88
2022/02/16 18:13:36;;;;;;;0.93;0.93;;;9.30;99.90;;;;;;6185942;23;20021;-90
2022/02/16 18:16:29;;;;;;;0.80;0.80;;;9.30;99.90;;;;;;6184489;23;20033;-88
2022/02/16 18:19:17;;;;;;;1.05;0.90;;;9.30;99.90;;;;;;6184466;23;20064;-88
2022/02/16 18:22:05;;;;;;;1.00;0.98;;;9.40;99.90;;;;;;6184813;23;20025;-87
2022/02/16 18:24:52;;;;;;;1.58;0.93;;;9.30;99.90;;;;;;6162957;23;20029;-88
2022/02/16 18:27:39;;;;;;;1.30;1.20;;;9.40;99.90;;;;;;6163716;23;20393;-88
2022/02/16 18:30:27;;;;;;;1.20;1.10;;;9.40;99.90;;;;;;6163224;23;20036;-87
2022/02/16 18:33:18;;;;;;;1.73;1.20;;;9.40;99.90;;;;;;6185627;23;20055;-89
2022/02/16 18:36:08;;;;;;;1.88;1.30;;;9.40;99.90;;;;;;6185161;23;20033;-90
2022/02/16 18:38:59;;;;;;;1.40;1.30;;;9.40;99.90;;;;;;6183794;23;20033;-89
2022/02/16 18:41:47;;;;;;;1.20;1.10;;;9.40;99.90;;;;;;6181905;23;20033;-87
2022/02/16 18:44:34;;;;;;;2.13;1.48;;;9.40;99.90;;;;;;6183856;23;20032;-90
2022/02/16 18:47:22;;;;;;;0.90;0.90;;;9.40;99.90;;;;;;6185380;23;20419;-89
2022/02/16 18:50:12;;;;;;;1.38;0.90;;;9.40;99.90;;;;;;6185692;23;20048;-90
2022/02/16 18:52:59;;;;;;;1.77;0.90;;;9.50;99.90;;;;;;6163412;23;20032;-88
2022/02/16 18:55:47;;;;;;;1.33;0.98;;;9.50;99.90;;;;;;6183071;23;20032;-88
2022/02/16 18:58:38;;;;;;;1.00;0.90;;;9.50;99.90;;;;;;6184796;23;20499;-89
2022/02/16 19:01:26;;;;;;;1.23;1.10;;;9.40;99.90;;;;;;6188061;23;20048;-89
2022/02/16 19:04:20;;;;;;;1.70;1.15;;;9.40;99.90;;;;;;6184416;23;20029;-88
2022/02/16 19:07:07;;;;;;;1.42;1.25;;;9.40;99.90;;;;;;6162669;23;20317;-88
2022/02/16 19:09:57;;;;;;;1.30;1.20;;;9.30;99.90;;;;;;6162510;23;20021;-85
2022/02/16 19:12:45;;;;;;;0.95;0.90;;;9.30;99.90;;;;;;6183466;23;20044;-87
2022/02/16 19:15:35;;;;;;;2.00;1.58;;;9.40;99.90;;;;;;6184671;23;20036;-89
2022/02/16 19:18:23;;;;;;;1.75;1.40;;;9.50;99.90;;;;;;6160447;23;20029;-88
2022/02/16 19:21:18;;;;;;;2.10;1.55;;;9.60;99.90;;;;;;6184981;23;20021;-91
2022/02/16 19:24:09;;;;;;;2.20;1.30;;;9.60;99.90;;;;;;6185704;23;20065;-89
2022/02/16 19:27:01;;;;;;;1.67;1.10;;;9.60;99.90;;;;;;6167009;23;20021;-91
2022/02/16 19:29:51;;;;;;;2.08;1.75;;;9.60;99.90;;;;;;6166662;23;20329;-90
2022/02/16 19:32:41;;;;;;;2.42;1.50;;;9.60;99.90;;;;;;6172344;23;20104;-89
2022/02/16 19:35:37;;;;;;;1.73;1.08;;;9.50;99.90;;;;;;6173731;23;20025;-89
2022/02/16 19:38:27;;;;;;;1.65;1.40;;;9.60;99.90;;;;;;6195989;23;20033;-91
2022/02/16 19:41:15;;;;;;;1.20;1.10;;;9.60;99.90;;;;;;6178088;23;20024;-90
2022/02/16 19:44:17;;;;;;;1.60;0.90;;;9.70;99.90;;;;;;6148971;23;20468;-90
2022/02/16 19:47:51;;;;;;;2.95;1.00;;;9.70;99.90;;;;;;6167459;23;20372;-91
2022/02/16 19:50:58;;;;;;;1.73;1.02;;;9.70;99.90;;;;;;6088883;23;20026;-92
2022/02/16 19:53:45;;;;;;;4.15;2.70;;;9.80;99.90;;;;;;6098629;23;20023;-91
2022/02/16 19:56:43;;;;;;;3.15;1.60;;;9.80;99.90;;;;;;6098889;23;20041;-88
2022/02/16 19:59:39;;;;;;;2.70;1.52;;;9.80;99.90;;;;;;6106205;23;20022;-89
2022/02/16 20:02:29;;;;;;;1.20;0.90;;;9.90;99.90;;;;;;6113035;23;20413;-88
2022/02/16 20:05:21;;;;;;;1.35;1.00;;;9.90;99.90;;;;;;6116312;23;20045;-90
2022/02/16 20:08:13;;;;;;;0.95;0.80;;;9.90;99.90;;;;;;6109889;23;20081;-90
2022/02/16 20:11:30;;;;;;;1.17;1.08;;;9.90;99.90;;;;;;6112832;23;20034;-90